Aigle Des Mers — FO4883 — position and weather

sailwx.info

Track history (hours):
 
Tides and Currents Weather Stations Pressure Air Temp Water Temp Dewpoint Dewpoint Depression Visibility Wind Speed Wind Dir Waves Ship Positions

Aigle Des Mers

Last reported at 2016-Sep-26 00:34 UTC. Time now 2016-Sep-27 15:37 UTC.
Position N 48°06' W 004°20'.

Type: Fishing. MMSI: 227318010.

Date/timePositionNaut miles runAvg speedWind from/ knotsBaromVisibWave heightAir tempDewpointWater temp
2016-Sep-26 00:34N 48°06' W 004°20'21 7.1
2016-Sep-25 21:34N 48°16' W 004°47'10 2.4
2016-Sep-25 17:33N 48°09' W 004°39'8 7.9
2016-Sep-25 16:33N 48°09' W 004°27'5 5.5
2016-Sep-25 15:34N 48°06' W 004°19'  
2016-Sep-23 02:10N 48°06' W 004°19'0 0.7
2016-Sep-23 01:33N 48°06' W 004°19'9 8.6
2016-Sep-23 00:33N 48°07' W 004°32'5 5.1
2016-Sep-22 23:33N 48°08' W 004°40'7 2.2
2016-Sep-22 20:33N 48°14' W 004°46'19 1.2
2016-Sep-22 04:33N 48°06' W 004°19'0 0.0
2016-Sep-22 03:33N 48°06' W 004°19'16 5.4
2016-Sep-22 00:34N 48°10' W 004°43'1 1.4
2016-Sep-21 23:33N 48°12' W 004°42'1 0.8
2016-Sep-21 22:34N 48°11' W 004°44'6 1.8
2016-Sep-21 19:34N 48°15' W 004°50'21 6.9
2016-Sep-21 16:33N 48°07' W 004°22'2 0.2
2016-Sep-21 05:33N 48°06' W 004°19'1 0.6
2016-Sep-21 03:33N 48°07' W 004°21'10 9.5
2016-Sep-21 02:33N 48°08' W 004°35'4 0.5
2016-Sep-20 17:34N 48°11' W 004°40'14 0.9
2016-Sep-20 02:11N 48°06' W 004°19'18 6.8
2016-Sep-19 23:34N 48°12' W 004°44'5 1.3
2016-Sep-19 19:34N 48°16' W 004°50'3 2.6
2016-Sep-19 18:33N 48°14' W 004°47'17 8.6
2016-Sep-19 16:33N 48°07' W 004°24'  
Track history (hours):
 
Tides and Currents Weather Stations Pressure Air Temp Water Temp Dewpoint Dewpoint Depression Visibility Wind Speed Wind Dir Waves Ship Positions

Aigle Des Mers

Last reported at 2016-Sep-26 00:34 UTC. Time now 2016-Sep-27 15:37 UTC.
Position N 48°06' W 004°20'.

Type: Fishing. MMSI: 227318010.

Date/timePositionNaut miles runAvg speedWind from/ knotsBaromVisibWave heightAir tempDewpointWater temp
2016-Sep-26 00:34N 48°06' W 004°20'21 7.1
2016-Sep-25 21:34N 48°16' W 004°47'10 2.4
2016-Sep-25 17:33N 48°09' W 004°39'8 7.9
2016-Sep-25 16:33N 48°09' W 004°27'5 5.5
2016-Sep-25 15:34N 48°06' W 004°19'  
2016-Sep-23 02:10N 48°06' W 004°19'0 0.7
2016-Sep-23 01:33N 48°06' W 004°19'9 8.6
2016-Sep-23 00:33N 48°07' W 004°32'5 5.1
2016-Sep-22 23:33N 48°08' W 004°40'7 2.2
2016-Sep-22 20:33N 48°14' W 004°46'19 1.2
2016-Sep-22 04:33N 48°06' W 004°19'0 0.0
2016-Sep-22 03:33N 48°06' W 004°19'16 5.4
2016-Sep-22 00:34N 48°10' W 004°43'1 1.4
2016-Sep-21 23:33N 48°12' W 004°42'1 0.8
2016-Sep-21 22:34N 48°11' W 004°44'6 1.8
2016-Sep-21 19:34N 48°15' W 004°50'21 6.9
2016-Sep-21 16:33N 48°07' W 004°22'2 0.2
2016-Sep-21 05:33N 48°06' W 004°19'1 0.6
2016-Sep-21 03:33N 48°07' W 004°21'10 9.5
2016-Sep-21 02:33N 48°08' W 004°35'4 0.5
2016-Sep-20 17:34N 48°11' W 004°40'14 0.9
2016-Sep-20 02:11N 48°06' W 004°19'18 6.8
2016-Sep-19 23:34N 48°12' W 004°44'5 1.3
2016-Sep-19 19:34N 48°16' W 004°50'3 2.6
2016-Sep-19 18:33N 48°14' W 004°47'17 8.6
2016-Sep-19 16:33N 48°07' W 004°24'  

Dump ship's entire track history